Time;durP1;ratioP1;P1;durP2;ratioP2;P2;SDS_P1;SDS_P2;PMS_P1;PMS_P2;Temp;Humidity;BMP_temperature;BMP_pressure;BME280_temperature;BME280_humidity;BME280_pressure;Samples;Min_cycle;Max_cycle;Signal;HPM_P1;HPM_P2
2022/08/27 00:02:11;;;;;;;9.90;8.73;;;;;;;21.06;68.29;100254.47;5094791;28;20485;-67
2022/08/27 00:04:39;;;;;;;9.80;7.85;;;;;;;21.11;68.33;100250.50;5094209;28;20048;-67
2022/08/27 00:07:07;;;;;;;14.00;12.32;;;;;;;21.13;68.22;100246.06;5094289;28;20051;-67
2022/08/27 00:09:35;;;;;;;12.40;10.75;;;;;;;21.13;68.14;100250.91;5101976;28;20059;-67
2022/08/27 00:12:05;;;;;;;13.27;11.77;;;;;;;21.03;68.32;100252.44;5094350;28;20504;-67
2022/08/27 00:14:33;;;;;;;12.13;10.93;;;;;;;21.00;68.40;100242.72;5094903;28;20048;-67
2022/08/27 00:17:00;;;;;;;14.63;12.48;;;;;;;21.06;68.28;100251.63;5094527;28;20481;-67
2022/08/27 00:19:28;;;;;;;14.27;12.77;;;;;;;21.09;68.24;100250.88;5094922;28;20048;-67
2022/08/27 00:21:56;;;;;;;13.95;12.20;;;;;;;21.15;68.03;100240.81;5094491;28;20059;-67
2022/08/27 00:24:23;;;;;;;14.85;10.95;;;;;;;21.09;68.36;100248.84;5110612;28;20472;-67
2022/08/27 00:26:52;;;;;;;10.48;8.77;;;;;;;21.06;68.57;100238.31;5093991;28;20052;-67
2022/08/27 00:29:21;;;;;;;8.03;7.23;;;;;;;21.01;68.75;100237.84;5094862;28;20055;-67
2022/08/27 00:31:48;;;;;;;8.60;5.95;;;;;;;21.06;68.34;100241.16;5093954;28;20462;-67
2022/08/27 00:34:15;;;;;;;8.68;5.53;;;;;;;21.04;68.37;100239.88;5094675;28;20075;-67
2022/08/27 00:36:44;;;;;;;7.90;5.40;;;;;;;20.99;68.79;100241.06;5093607;28;20048;-67
2022/08/27 00:39:11;;;;;;;6.30;5.20;;;;;;;21.01;68.41;100243.50;5109406;28;20043;-67
2022/08/27 00:41:41;;;;;;;7.10;5.65;;;;;;;20.92;68.77;100243.84;5095989;28;20486;-67
2022/08/27 00:44:08;;;;;;;6.30;5.70;;;;;;;20.87;68.99;100249.84;5093770;28;20078;-67
2022/08/27 00:46:41;;;;;;;7.13;5.53;;;;;;;20.89;68.89;100253.09;5094023;28;20048;-67
2022/08/27 00:49:12;;;;;;;6.50;5.90;;;;;;;20.87;68.61;100247.03;5094301;28;20067;-68
2022/08/27 00:51:40;;;;;;;7.78;6.03;;;;;;;20.82;68.79;100248.19;5093874;28;20052;-68
2022/08/27 00:54:09;;;;;;;9.35;7.25;;;;;;;20.84;68.64;100247.81;5101604;28;20489;-67
2022/08/27 00:56:43;;;;;;;8.93;6.78;;;;;;;20.76;68.89;100249.75;5101416;28;20520;-66
2022/08/27 00:59:13;;;;;;;8.85;7.03;;;;;;;20.77;68.92;100253.41;5093952;28;20499;-68
2022/08/27 01:04:25;;;;;;;9.23;7.70;;;;;;;20.68;69.67;100257.38;5093190;28;20052;-67
2022/08/27 01:06:53;;;;;;;12.65;10.02;;;;;;;20.65;70.14;100254.50;5093019;28;20052;-67
2022/08/27 01:09:21;;;;;;;13.68;10.88;;;;;;;20.65;70.05;100254.50;5094679;28;20053;-67
2022/08/27 01:11:48;;;;;;;15.27;12.35;;;;;;;20.66;70.08;100262.63;5101692;28;20048;-66
2022/08/27 01:14:17;;;;;;;13.65;11.80;;;;;;;20.61;70.43;100254.47;5114310;28;20051;-67
2022/08/27 01:16:50;;;;;;;14.38;11.20;;;;;;;20.58;70.75;100260.91;5107397;28;20060;-67
2022/08/27 01:19:26;;;;;;;11.95;10.45;;;;;;;20.57;70.78;100253.56;5093825;28;20052;-67
2022/08/27 01:22:02;;;;;;;13.43;10.55;;;;;;;20.54;71.15;100257.19;5101376;28;20044;-67
2022/08/27 01:24:36;;;;;;;11.52;9.82;;;;;;;20.56;71.32;100257.63;5093231;28;20048;-67
2022/08/27 01:27:07;;;;;;;14.65;11.05;;;;;;;20.56;71.65;100254.00;5103639;28;20415;-68
2022/08/27 01:29:36;;;;;;;10.45;9.10;;;;;;;20.60;71.70;100264.16;5110281;28;20476;-67
2022/08/27 01:32:09;;;;;;;11.80;8.50;;;;;;;20.60;71.29;100252.84;5108409;28;20047;-67
2022/08/27 01:34:37;;;;;;;9.93;8.35;;;;;;;20.51;71.55;100255.13;5079656;28;20063;-67
2022/08/27 01:37:05;;;;;;;10.93;8.95;;;;;;;20.47;71.86;100254.28;5108019;28;20059;-67
2022/08/27 01:39:36;;;;;;;10.07;9.07;;;;;;;20.40;71.96;100257.03;5092857;28;20055;-67
2022/08/27 01:42:07;;;;;;;9.93;8.73;;;;;;;20.36;72.02;100256.97;5092516;28;20493;-68
2022/08/27 01:44:49;;;;;;;10.20;8.98;;;;;;;20.33;72.35;100262.63;5092627;28;20476;-67
2022/08/27 01:47:18;;;;;;;9.68;8.55;;;;;;;20.31;72.19;100254.50;5099329;28;20063;-67
2022/08/27 01:49:45;;;;;;;12.27;9.90;;;;;;;20.31;72.14;100260.16;5109948;28;20066;-67
2022/08/27 01:52:14;;;;;;;10.18;8.60;;;;;;;20.27;72.27;100262.94;5112833;28;20076;-67
2022/08/27 01:54:43;;;;;;;10.05;8.23;;;;;;;20.27;71.99;100264.97;5092107;28;20080;-67
2022/08/27 01:57:11;;;;;;;11.38;9.82;;;;;;;20.23;72.13;100262.09;5092870;28;20081;-68
2022/08/27 01:59:38;;;;;;;11.98;8.82;;;;;;;20.18;72.59;100256.78;5104241;28;20058;-67
2022/08/27 02:02:07;;;;;;;10.82;8.68;;;;;;;20.19;72.74;100266.88;5112499;28;20055;-68
2022/08/27 02:04:35;;;;;;;10.02;8.98;;;;;;;20.14;73.07;100263.56;5095400;28;20492;-68
2022/08/27 02:07:02;;;;;;;9.88;8.50;;;;;;;20.16;73.12;100258.34;5092074;28;20056;-67
2022/08/27 02:09:30;;;;;;;9.05;8.15;;;;;;;20.13;73.29;100254.28;5092583;28;20044;-68
2022/08/27 02:11:59;;;;;;;10.57;9.50;;;;;;;20.14;73.45;100255.94;5092555;28;20051;-67
2022/08/27 02:14:26;;;;;;;;;;;;;;;20.07;74.05;100255.81;5103631;28;20460;-67
2022/08/27 02:16:53;;;;;;;10.93;8.73;;;;;;;20.10;73.59;100252.25;5107086;28;20403;-68
2022/08/27 02:19:22;;;;;;;10.23;8.85;;;;;;;20.08;73.67;100254.63;5101613;28;20051;-67
2022/08/27 02:21:49;;;;;;;9.82;8.77;;;;;;;20.09;73.90;100253.41;5092554;28;20075;-67
2022/08/27 02:24:17;;;;;;;11.02;8.52;;;;;;;20.13;74.02;100245.00;5092298;28;20055;-67
2022/08/27 02:26:44;;;;;;;9.15;8.25;;;;;;;19.96;74.38;100252.06;5092467;28;20052;-67
2022/08/27 02:29:13;;;;;;;9.00;8.10;;;;;;;20.02;74.62;100251.31;5091835;28;20048;-68
2022/08/27 02:31:41;;;;;;;7.75;6.72;;;;;;;19.92;74.42;100246.34;5102906;28;20503;-68
2022/08/27 02:34:08;;;;;;;7.07;6.38;;;;;;;19.93;74.63;100252.81;5102572;28;20500;-68
2022/08/27 02:36:36;;;;;;;8.20;7.20;;;;;;;19.94;74.69;100248.78;5092520;28;20492;-67
2022/08/27 02:39:04;;;;;;;8.73;7.30;;;;;;;19.96;74.63;100250.03;5091816;28;20059;-68
2022/08/27 02:41:31;;;;;;;8.57;6.70;;;;;;;19.97;74.59;100250.84;5072454;28;20404;-62
2022/08/27 02:43:58;;;;;;;6.68;6.07;;;;;;;19.98;74.82;100246.84;5072649;28;20052;-62
2022/08/27 02:46:27;;;;;;;7.30;6.60;;;;;;;19.98;74.78;100246.84;5087533;28;20056;-62
2022/08/27 02:48:55;;;;;;;7.47;6.78;;;;;;;19.98;74.38;100255.31;5108303;28;20048;-63
2022/08/27 02:51:22;;;;;;;9.05;8.07;;;;;;;20.00;74.33;100244.44;5092145;28;20062;-62
2022/08/27 02:53:49;;;;;;;9.05;7.75;;;;;;;20.01;73.97;100243.22;5092271;28;20074;-62
2022/08/27 02:56:17;;;;;;;9.35;8.32;;;;;;;20.04;73.87;100246.09;5091871;28;20404;-62
2022/08/27 02:58:44;;;;;;;8.55;7.70;;;;;;;20.06;73.85;100246.53;5091948;28;20405;-62
2022/08/27 03:01:12;;;;;;;15.50;10.95;;;;;;;20.00;74.00;100244.44;5099487;28;20491;-62
2022/08/27 03:03:42;;;;;;;10.55;9.52;;;;;;;19.99;74.01;100246.47;5112273;28;20054;-62
2022/08/27 03:06:09;;;;;;;11.32;10.13;;;;;;;20.00;74.08;100244.44;5098426;28;20067;-62
2022/08/27 03:08:36;;;;;;;12.40;10.55;;;;;;;19.96;74.20;100246.41;5089984;28;20063;-63
2022/08/27 03:11:05;;;;;;;12.73;11.23;;;;;;;19.91;74.46;100244.72;5082125;28;20048;-62
2022/08/27 03:13:36;;;;;;;10.85;9.77;;;;;;;19.93;74.29;100248.00;5091932;28;20044;-62
2022/08/27 03:16:04;;;;;;;10.70;9.70;;;;;;;19.90;74.47;100245.09;5096412;28;20056;-62
2022/08/27 03:18:31;;;;;;;11.65;10.45;;;;;;;19.92;74.29;100237.06;5112046;28;20067;-62
2022/08/27 03:21:02;;;;;;;11.15;10.00;;;;;;;19.94;73.99;100248.78;5104575;28;20049;-63
2022/08/27 03:23:32;;;;;;;12.60;10.43;;;;;;;19.94;74.02;100248.78;5091454;28;20405;-62
2022/08/27 03:26:01;;;;;;;11.85;10.63;;;;;;;19.95;74.20;100247.59;5091260;28;20071;-62
2022/08/27 03:28:31;;;;;;;14.32;10.98;;;;;;;19.95;74.15;100247.59;5091186;28;20063;-62
2022/08/27 03:31:01;;;;;;;11.35;10.20;;;;;;;19.93;73.99;100252.81;5103170;28;20048;-63
2022/08/27 03:33:30;;;;;;;11.05;9.93;;;;;;;19.90;73.54;100248.75;5091610;28;20052;-62
2022/08/27 03:36:00;;;;;;;11.65;10.45;;;;;;;19.90;73.75;100251.56;5093526;28;20048;-62
2022/08/27 03:38:27;;;;;;;10.43;9.48;;;;;;;19.95;73.73;100258.88;5095702;28;20145;-62
2022/08/27 03:40:55;;;;;;;11.88;10.63;;;;;;;19.95;73.86;100256.91;5095276;28;20055;-62
2022/08/27 03:43:23;;;;;;;9.13;8.30;;;;;;;19.98;73.09;100260.97;5100343;28;20039;-62
2022/08/27 03:45:51;;;;;;;10.45;9.32;;;;;;;19.97;73.40;100253.66;5116267;28;20139;-62
2022/08/27 03:48:19;;;;;;;12.55;9.75;;;;;;;19.95;73.37;100258.88;5095626;28;20480;-62
2022/08/27 03:50:48;;;;;;;10.13;8.52;;;;;;;19.94;73.36;100260.09;5095253;28;20056;-62
2022/08/27 03:53:20;;;;;;;8.50;7.78;;;;;;;19.94;73.29;100262.94;5095291;28;20067;-62
2022/08/27 03:55:47;;;;;;;10.32;9.13;;;;;;;19.88;73.39;100262.44;5095449;28;20052;-62
2022/08/27 03:58:16;;;;;;;9.77;8.88;;;;;;;19.91;73.54;100255.19;5098758;28;20047;-62
2022/08/27 04:00:44;;;;;;;10.80;9.70;;;;;;;19.95;73.26;100264.53;5111420;28;20066;-62
2022/08/27 04:03:12;;;;;;;10.63;9.50;;;;;;;19.93;73.26;100255.63;5100738;28;20048;-62
2022/08/27 04:05:41;;;;;;;10.63;9.63;;;;;;;19.95;73.04;100256.91;5094885;28;20048;-62
2022/08/27 04:08:08;;;;;;;10.87;9.63;;;;;;;19.97;73.31;100260.16;5094490;28;20048;-62
2022/08/27 04:10:40;;;;;;;10.48;9.30;;;;;;;19.99;73.02;100257.75;5095195;28;20048;-63
2022/08/27 04:13:08;;;;;;;11.45;9.27;;;;;;;19.96;73.25;100254.88;5098197;28;20494;-62
2022/08/27 04:15:35;;;;;;;10.30;9.30;;;;;;;19.93;72.96;100261.28;5112900;28;20063;-62
2022/08/27 04:18:02;;;;;;;11.27;10.10;;;;;;;19.91;73.33;100256.03;5105606;28;20052;-63
2022/08/27 04:20:29;;;;;;;11.27;10.18;;;;;;;19.92;73.24;100260.47;5094760;28;20052;-62
2022/08/27 04:22:57;;;;;;;12.13;10.90;;;;;;;19.92;73.29;100265.31;5094486;28;20059;-62
2022/08/27 04:25:24;;;;;;;12.48;11.02;;;;;;;19.87;73.30;100267.28;5094605;28;20477;-62
2022/08/27 04:27:53;;;;;;;10.57;9.48;;;;;;;19.86;73.47;100270.50;5092655;28;20051;-62
2022/08/27 04:30:20;;;;;;;11.85;8.55;;;;;;;19.85;73.38;100274.53;5109295;28;20484;-62
2022/08/27 04:32:48;;;;;;;9.40;8.45;;;;;;;19.82;73.13;100270.47;5112075;28;20071;-62
2022/08/27 04:35:15;;;;;;;9.27;8.43;;;;;;;19.77;73.02;100267.13;5094559;28;20060;-62
2022/08/27 04:37:42;;;;;;;8.80;7.22;;;;;;;19.74;73.00;100263.06;5094118;28;20060;-63
2022/08/27 04:40:10;;;;;;;8.55;7.82;;;;;;;19.69;73.40;100271.84;5094214;28;20048;-62
2022/08/27 04:42:37;;;;;;;8.48;7.18;;;;;;;19.70;73.48;100267.84;5094125;28;20063;-62
2022/08/27 04:45:08;;;;;;;8.98;7.65;;;;;;;19.67;73.54;100268.56;5110827;28;20056;-62
2022/08/27 04:47:36;;;;;;;7.65;6.80;;;;;;;19.64;73.54;100266.53;5107119;28;20043;-62
2022/08/27 04:50:03;;;;;;;9.25;7.63;;;;;;;19.61;73.89;100270.94;5093634;28;20126;-62
2022/08/27 04:52:31;;;;;;;9.18;7.22;;;;;;;19.60;73.98;100269.28;5094416;28;20052;-62
2022/08/27 04:54:58;;;;;;;10.18;8.13;;;;;;;19.57;73.97;100274.88;5093743;28;20051;-62
2022/08/27 04:57:26;;;;;;;9.15;8.25;;;;;;;19.55;74.29;100266.81;5093558;28;20416;-62
2022/08/27 04:59:55;;;;;;;8.05;6.97;;;;;;;19.55;74.24;100268.78;5103828;28;20051;-62
2022/08/27 05:02:24;;;;;;;11.80;8.68;;;;;;;19.59;74.15;100273.34;5114130;28;20048;-62
2022/08/27 05:04:52;;;;;;;8.52;7.47;;;;;;;19.60;74.13;100271.31;5102457;28;20044;-62
2022/08/27 05:07:19;;;;;;;8.32;7.55;;;;;;;19.60;73.89;100277.78;5093490;28;20060;-62
2022/08/27 05:09:46;;;;;;;9.20;8.30;;;;;;;19.62;73.87;100275.38;5093444;28;20052;-62
2022/08/27 05:12:13;;;;;;;11.20;9.45;;;;;;;19.64;73.78;100275.00;5093530;28;20055;-62
2022/08/27 05:14:41;;;;;;;10.30;9.18;;;;;;;19.67;73.80;100274.22;5099140;28;20044;-62
2022/08/27 05:17:08;;;;;;;9.30;8.45;;;;;;;19.72;73.71;100276.78;5112241;28;20082;-63
2022/08/27 05:19:37;;;;;;;10.27;9.00;;;;;;;19.73;73.82;100272.72;5109660;28;20048;-62
2022/08/27 05:22:04;;;;;;;;;;;;;;;19.73;73.44;100281.22;5093900;28;20051;-62
2022/08/27 05:24:32;;;;;;;9.43;8.52;;;;;;;19.72;73.36;100276.78;5093636;28;20284;-62
2022/08/27 05:26:59;;;;;;;9.77;8.75;;;;;;;19.68;73.41;100281.53;5093293;28;20354;-62
2022/08/27 05:29:27;;;;;;;8.82;7.93;;;;;;;19.75;73.56;100276.00;5106512;28;20480;-62
2022/08/27 05:31:55;;;;;;;8.57;7.78;;;;;;;19.79;73.55;100281.72;5093083;28;20480;-63
2022/08/27 05:34:22;;;;;;;7.72;7.03;;;;;;;19.80;73.22;100281.34;5111502;28;20042;-62
2022/08/27 05:36:51;;;;;;;8.05;7.28;;;;;;;19.84;72.96;100278.53;5111158;28;20055;-62
2022/08/27 05:39:18;;;;;;;;;;;;;;;19.79;72.97;100276.88;5114111;28;20412;-62
2022/08/27 05:41:46;;;;;;;8.77;7.20;;;;;;;19.79;72.89;100285.34;5097031;28;20391;-63
2022/08/27 05:44:14;;;;;;;9.45;7.63;;;;;;;19.81;72.78;100279.31;5113635;28;20039;-62
2022/08/27 05:46:41;;;;;;;7.20;6.43;;;;;;;19.82;73.28;100280.94;5098002;28;20056;-62
2022/08/27 05:49:09;;;;;;;8.75;7.95;;;;;;;19.82;73.08;100286.59;5093131;28;20060;-63
2022/08/27 05:51:37;;;;;;;7.97;7.05;;;;;;;19.84;73.02;100290.69;5092809;28;20063;-63
2022/08/27 05:54:09;;;;;;;8.50;6.97;;;;;;;19.80;73.11;100295.47;5092851;28;20406;-62
2022/08/27 05:56:38;;;;;;;7.18;6.47;;;;;;;19.82;72.92;100293.06;5093416;28;20070;-62
2022/08/27 06:01:54;;;;;;;6.82;6.15;;;;;;;19.79;73.06;100282.50;5106368;28;20511;-62
2022/08/27 06:04:23;;;;;;;7.90;7.03;;;;;;;19.75;72.94;100292.94;5092742;28;20507;-62
2022/08/27 06:06:51;;;;;;;;;;;;;;;19.70;73.10;100292.44;5090379;28;20437;-63
2022/08/27 06:09:23;;;;;;;7.85;6.35;;;;;;;19.75;73.03;100292.94;5112210;28;20299;-62
2022/08/27 06:11:53;;;;;;;8.10;5.85;;;;;;;19.77;72.87;100296.22;5099707;28;20044;-63
2022/08/27 06:14:20;;;;;;;;;;;;;;;19.81;72.72;100294.25;5095284;28;20808;-63
2022/08/27 06:16:47;;;;;;;7.65;6.65;;;;;;;19.84;72.31;100293.50;5100471;28;20292;-62
2022/08/27 06:19:15;;;;;;;6.68;5.97;;;;;;;19.90;72.56;100293.16;5112997;28;20078;-62
2022/08/27 06:21:42;;;;;;;8.40;6.25;;;;;;;19.93;72.41;100298.88;5105687;28;20062;-62
2022/08/27 06:24:12;;;;;;;7.97;6.35;;;;;;;19.97;72.30;100307.38;5092474;28;20491;-63
2022/08/27 06:26:43;;;;;;;8.27;5.65;;;;;;;20.02;72.15;100307.88;5092494;28;20056;-62
2022/08/27 06:29:11;;;;;;;7.35;6.18;;;;;;;20.03;72.13;100311.50;5101000;28;20051;-63
2022/08/27 06:31:39;;;;;;;6.43;5.82;;;;;;;20.06;72.12;100307.94;5110248;28;20058;-62
2022/08/27 06:34:08;;;;;;;7.03;5.97;;;;;;;20.13;72.10;100310.84;5103572;28;20150;-62
2022/08/27 06:36:37;;;;;;;11.45;7.13;;;;;;;20.03;72.37;100314.34;5096454;28;20122;-52
2022/08/27 06:39:04;;;;;;;10.15;7.20;;;;;;;20.17;71.63;100310.91;5092205;28;20495;-52
2022/08/27 06:41:33;;;;;;;6.85;5.50;;;;;;;20.22;72.09;100310.53;5092683;28;20054;-53
2022/08/27 06:44:02;;;;;;;6.17;5.53;;;;;;;20.33;71.43;100303.03;5109587;28;20056;-53
2022/08/27 06:46:30;;;;;;;10.70;6.72;;;;;;;20.41;70.93;100306.75;5111921;28;20526;-53
2022/08/27 06:48:59;;;;;;;8.82;6.60;;;;;;;20.47;70.60;100299.53;5092395;28;20052;-54
2022/08/27 06:51:28;;;;;;;11.93;7.90;;;;;;;20.46;70.52;100309.25;5092045;28;20079;-51
2022/08/27 06:53:56;;;;;;;;;;;;;;;20.47;70.36;100300.38;5096013;28;20044;-52
2022/08/27 06:56:24;;;;;;;8.82;6.78;;;;;;;20.66;69.75;100307.06;5101817;28;19920;-52
2022/08/27 06:58:54;;;;;;;11.98;8.48;;;;;;;20.78;69.14;100303.16;5101338;28;20480;-53
2022/08/27 07:01:24;;;;;;;8.40;6.30;;;;;;;20.92;68.31;100308.16;5099661;28;21023;-53
2022/08/27 07:03:55;;;;;;;7.65;6.82;;;;;;;21.06;67.91;100302.63;5095362;28;20051;-53
2022/08/27 07:06:23;;;;;;;8.68;6.38;;;;;;;21.22;68.01;100305.19;5090681;28;20500;-53
2022/08/27 07:08:50;;;;;;;8.65;6.15;;;;;;;21.36;67.06;100305.31;5089086;28;20048;-53
2022/08/27 07:11:21;;;;;;;6.57;5.03;;;;;;;21.49;66.62;100291.69;5094191;28;20066;-53
2022/08/27 07:13:50;;;;;;;9.07;6.50;;;;;;;21.55;65.97;100292.13;5087083;28;20056;-53
2022/08/27 07:16:20;;;;;;;9.90;5.78;;;;;;;21.58;66.53;100294.97;5094258;28;20048;-52
2022/08/27 07:18:49;;;;;;;6.80;6.07;;;;;;;21.62;65.75;100295.00;5093698;28;20047;-52
2022/08/27 07:21:18;;;;;;;7.97;5.15;;;;;;;21.61;65.73;100296.25;5086612;28;20052;-54
2022/08/27 07:23:47;;;;;;;6.05;4.45;;;;;;;21.60;65.36;100303.09;5091250;28;20051;-51
2022/08/27 07:26:15;;;;;;;10.63;6.38;;;;;;;21.55;64.75;100295.78;5077580;28;20063;-53
2022/08/27 07:28:45;;;;;;;8.00;4.00;;;;;;;21.60;64.39;100300.25;5103950;28;20063;-53
2022/08/27 07:31:15;;;;;;;6.20;4.00;;;;;;;21.61;64.69;100304.75;5094113;28;20052;-51
2022/08/27 07:33:43;;;;;;;6.55;4.50;;;;;;;21.44;65.48;100307.03;5095561;28;20055;-53
2022/08/27 07:36:12;;;;;;;8.32;3.97;;;;;;;21.59;65.14;100312.81;5094801;28;20044;-50
2022/08/27 07:38:39;;;;;;;4.72;3.13;;;;;;;21.69;64.14;100310.06;5095838;28;20465;-53
2022/08/27 07:41:07;;;;;;;8.90;4.03;;;;;;;21.65;63.83;100302.75;5094057;28;20401;-52
2022/08/27 07:46:22;;;;;;;8.02;4.07;;;;;;;21.96;62.75;100314.66;5094715;28;20056;-53
2022/08/27 07:48:49;;;;;;;6.32;3.88;;;;;;;22.01;62.35;100311.47;5075538;28;20052;-53
2022/08/27 07:51:21;;;;;;;4.43;3.58;;;;;;;22.15;62.14;100320.03;5090742;28;20055;-54
2022/08/27 07:53:48;;;;;;;5.38;3.17;;;;;;;22.18;62.55;100316.41;5096787;28;20052;-54
2022/08/27 07:56:16;;;;;;;6.07;3.40;;;;;;;22.19;62.82;100314.38;5095263;28;20040;-53
2022/08/27 07:58:44;;;;;;;5.63;3.72;;;;;;;22.34;61.67;100316.09;5108072;28;20121;-52
2022/08/27 08:01:12;;;;;;;6.78;3.78;;;;;;;22.31;61.79;100316.09;5095012;28;20077;-53
2022/08/27 08:03:40;;;;;;;5.47;3.78;;;;;;;22.21;62.32;100321.28;5094177;28;20043;-53
2022/08/27 08:06:12;;;;;;;6.20;3.55;;;;;;;22.32;62.04;100320.56;5092434;28;20067;-53
2022/08/27 08:08:41;;;;;;;4.97;3.20;;;;;;;22.33;61.08;100322.19;5094280;28;20052;-53
2022/08/27 08:11:08;;;;;;;5.60;3.97;;;;;;;22.28;61.77;100318.53;5091346;28;20122;-54
2022/08/27 08:13:36;;;;;;;8.07;3.90;;;;;;;22.31;61.38;100325.41;5085318;28;20102;-53
2022/08/27 08:16:05;;;;;;;7.32;3.63;;;;;;;22.29;61.11;100322.97;5093375;28;20059;-52
2022/08/27 08:18:37;;;;;;;4.72;3.38;;;;;;;22.49;60.70;100332.00;5082014;28;20068;-53
2022/08/27 08:21:07;;;;;;;5.90;2.90;;;;;;;22.48;61.80;100332.38;5083506;28;20048;-52
2022/08/27 08:23:34;;;;;;;3.60;2.58;;;;;;;22.54;60.75;100330.78;5079790;28;20064;-53
2022/08/27 08:26:03;;;;;;;6.53;2.70;;;;;;;22.61;60.63;100330.81;5088824;28;20055;-51
2022/08/27 08:28:32;;;;;;;;;;;;;;;22.18;61.83;100327.75;5074986;28;20059;-54
2022/08/27 08:31:00;;;;;;;4.88;2.97;;;;;;;22.39;61.25;100334.78;5089522;28;19920;-52
2022/08/27 08:33:30;;;;;;;3.20;2.00;;;;;;;22.63;60.61;100334.06;5093696;28;20056;-53
2022/08/27 08:36:03;;;;;;;6.53;2.40;;;;;;;22.69;59.95;100340.16;5092931;28;20162;-53
2022/08/27 08:38:31;;;;;;;4.32;2.03;;;;;;;22.66;59.93;100336.09;5111166;28;20055;-62
2022/08/27 08:40:58;;;;;;;5.25;2.05;;;;;;;22.76;60.49;100337.34;5110859;28;20052;-62
2022/08/27 08:43:32;;;;;;;5.32;2.10;;;;;;;22.89;60.31;100337.81;5092348;28;20058;-62
2022/08/27 08:46:08;;;;;;;5.10;2.13;;;;;;;22.98;58.97;100341.06;5092244;28;20051;-62
2022/08/27 08:48:39;;;;;;;6.50;2.13;;;;;;;23.07;57.72;100338.66;5093895;28;20059;-62
2022/08/27 08:51:13;;;;;;;8.90;2.83;;;;;;;23.11;58.15;100338.66;5080293;28;20512;-62
2022/08/27 08:53:51;;;;;;;8.85;2.15;;;;;;;23.08;58.52;100339.50;5093547;28;20484;-62
2022/08/27 08:56:24;;;;;;;6.03;2.20;;;;;;;23.09;57.64;100347.59;5093928;28;20416;-62
2022/08/27 08:58:57;;;;;;;6.90;2.22;;;;;;;22.97;57.90;100353.63;5092943;28;20075;-62
2022/08/27 09:01:27;;;;;;;12.00;2.30;;;;;;;22.81;57.50;100356.84;5095665;28;20056;-62
2022/08/27 09:03:56;;;;;;;4.93;1.80;;;;;;;22.82;57.76;100351.97;5093090;28;20044;-63
2022/08/27 09:06:34;;;;;;;9.95;2.10;;;;;;;22.80;58.17;100348.72;5087729;28;20048;-62
2022/08/27 09:09:13;;;;;;;6.35;2.03;;;;;;;22.84;57.75;100349.53;5079784;28;20057;-62
2022/08/27 09:11:49;;;;;;;9.68;2.20;;;;;;;22.88;57.57;100356.03;5081867;28;20048;-62
2022/08/27 09:14:26;;;;;;;5.93;2.15;;;;;;;22.91;57.42;100346.72;5093900;28;20062;-62
2022/08/27 09:16:53;;;;;;;5.43;1.80;;;;;;;22.97;57.61;100355.66;5083957;28;20048;-62
2022/08/27 09:19:21;;;;;;;8.07;2.35;;;;;;;22.95;57.30;100346.72;5093530;28;20226;-61
2022/08/27 09:21:56;;;;;;;6.32;2.20;;;;;;;22.90;57.45;100350.78;5093929;28;20056;-62
2022/08/27 09:24:31;;;;;;;7.55;2.00;;;;;;;22.87;57.34;100351.59;5098859;28;20070;-61
2022/08/27 09:26:59;;;;;;;4.22;1.95;;;;;;;22.89;57.60;100349.16;5086622;28;20048;-62
2022/08/27 09:29:29;;;;;;;5.18;1.98;;;;;;;22.86;57.16;100361.31;5091087;28;20051;-62
2022/08/27 09:31:59;;;;;;;4.30;2.08;;;;;;;22.90;57.59;100359.28;5092127;28;20063;-62
2022/08/27 09:34:34;;;;;;;4.82;1.70;;;;;;;22.96;56.89;100357.69;5091690;28;20064;-62
2022/08/27 09:37:06;;;;;;;6.15;2.40;;;;;;;22.99;57.34;100356.88;5101303;28;20052;-62
2022/08/27 09:39:36;;;;;;;4.35;1.88;;;;;;;22.99;57.09;100354.03;5091391;28;20397;-62
2022/08/27 09:42:04;;;;;;;5.15;1.70;;;;;;;22.99;57.26;100342.66;5092955;28;20118;-63
2022/08/27 09:44:45;;;;;;;6.38;1.55;;;;;;;23.06;56.86;100351.25;5092261;28;20158;-63
2022/08/27 09:47:15;;;;;;;5.28;2.10;;;;;;;23.09;56.68;100347.59;5091269;28;20047;-62
2022/08/27 09:49:42;;;;;;;2.92;1.70;;;;;;;23.16;55.60;100358.19;5090893;28;20055;-61
2022/08/27 09:52:25;;;;;;;4.93;1.70;;;;;;;23.28;55.97;100356.97;5108164;28;20044;-62
2022/08/27 09:54:54;;;;;;;3.88;2.08;;;;;;;23.39;55.87;100352.13;5099042;28;20492;-62
2022/08/27 09:57:32;;;;;;;5.57;1.98;;;;;;;23.46;54.36;100351.31;5091442;28;20420;-62
2022/08/27 10:00:02;;;;;;;4.95;1.83;;;;;;;23.53;53.96;100350.47;5092952;28;20055;-63
2022/08/27 10:02:29;;;;;;;8.10;2.55;;;;;;;23.59;54.78;100346.00;5083680;28;20059;-62
2022/08/27 10:05:01;;;;;;;4.20;1.80;;;;;;;23.70;53.74;100346.81;5090894;28;20048;-61
2022/08/27 10:07:38;;;;;;;3.85;1.42;;;;;;;23.81;53.39;100346.81;5083255;28;20044;-62
2022/08/27 10:10:10;;;;;;;3.75;1.65;;;;;;;23.92;51.96;100344.78;5092084;28;20389;-62
2022/08/27 10:12:49;;;;;;;3.88;1.50;;;;;;;23.97;51.65;100343.56;5097959;28;20428;-61
2022/08/27 10:15:18;;;;;;;6.38;2.08;;;;;;;23.82;52.96;100351.31;5099631;28;20043;-61
2022/08/27 10:17:58;;;;;;;5.95;2.30;;;;;;;23.94;52.89;100347.22;5113239;28;20048;-62
2022/08/27 10:20:35;;;;;;;5.72;1.92;;;;;;;24.02;52.46;100343.97;5098729;28;20063;-62
2022/08/27 10:23:16;;;;;;;6.22;1.83;;;;;;;24.11;51.69;100346.38;5097545;28;20110;-62
2022/08/27 10:25:54;;;;;;;3.50;1.65;;;;;;;24.08;51.48;100350.03;5085696;28;20052;-60
2022/08/27 10:28:35;;;;;;;4.15;1.63;;;;;;;24.05;51.46;100350.84;5086870;28;20150;-61
2022/08/27 10:31:18;;;;;;;4.47;2.08;;;;;;;24.11;51.69;100352.88;5093692;28;20067;-61
2022/08/27 10:33:59;;;;;;;4.63;1.60;;;;;;;24.12;49.95;100350.84;5089967;28;20056;-61
2022/08/27 10:36:38;;;;;;;5.85;1.60;;;;;;;24.11;50.63;100349.22;5086536;28;20052;-62
2022/08/27 10:39:15;;;;;;;2.33;1.33;;;;;;;24.05;50.59;100351.66;5085429;28;20052;-61
2022/08/27 10:41:47;;;;;;;4.18;1.90;;;;;;;24.06;50.99;100352.47;5097865;28;20066;-61
2022/08/27 10:44:39;;;;;;;3.25;1.58;;;;;;;24.02;50.83;100357.34;5094066;28;20056;-60
2022/08/27 10:47:23;;;;;;;4.22;1.48;;;;;;;23.87;50.46;100363.06;5085838;28;20049;-61
2022/08/27 10:50:04;;;;;;;7.13;2.33;;;;;;;23.91;50.50;100355.34;5111829;28;20051;-61
2022/08/27 10:52:38;;;;;;;4.30;1.75;;;;;;;23.90;51.15;100364.31;5080380;28;20484;-61
2022/08/27 10:55:14;;;;;;;4.10;2.00;;;;;;;23.91;50.92;100366.72;5090872;28;20056;-61
2022/08/27 10:58:09;;;;;;;6.53;1.90;;;;;;;23.88;50.49;100361.84;5087911;28;20044;-61
2022/08/27 11:00:42;;;;;;;4.60;1.67;;;;;;;23.91;50.66;100360.22;5089790;28;20052;-61
2022/08/27 11:03:19;;;;;;;4.25;1.70;;;;;;;23.99;50.45;100350.47;5098091;28;20059;-61
2022/08/27 11:05:49;;;;;;;4.55;1.80;;;;;;;24.04;50.02;100355.75;5090553;28;20064;-60
2022/08/27 11:08:27;;;;;;;4.22;1.75;;;;;;;23.99;51.14;100356.16;5091697;28;20059;-61
2022/08/27 11:10:59;;;;;;;6.40;2.05;;;;;;;23.81;53.61;100359.03;5090597;28;20045;-61
2022/08/27 11:13:33;;;;;;;4.38;1.60;;;;;;;23.81;54.13;100356.19;5090036;28;20420;-62
2022/08/27 11:16:06;;;;;;;4.90;2.42;;;;;;;23.89;54.33;100349.25;5083731;28;20064;-62
2022/08/27 11:18:43;;;;;;;3.20;1.63;;;;;;;23.88;53.58;100359.00;5102968;28;20096;-61
2022/08/27 11:21:19;;;;;;;6.03;1.80;;;;;;;24.05;53.08;100354.50;5094146;28;20048;-61
2022/08/27 11:23:52;;;;;;;5.57;1.73;;;;;;;24.01;52.72;100356.56;5093074;28;20055;-61
2022/08/27 11:26:20;;;;;;;4.82;1.80;;;;;;;24.00;52.55;100352.09;5089350;28;20048;-61
2022/08/27 11:28:51;;;;;;;2.85;1.67;;;;;;;23.65;53.56;100355.75;5090485;28;20048;-61
2022/08/27 11:31:25;;;;;;;4.57;1.65;;;;;;;23.70;53.32;100350.47;5079485;28;20461;-61
2022/08/27 11:34:02;;;;;;;5.10;1.70;;;;;;;23.79;53.31;100354.94;5090342;28;20052;-61
2022/08/27 11:36:59;;;;;;;5.38;1.70;;;;;;;23.72;53.88;100350.06;5091012;28;20048;-61
2022/08/27 11:39:44;;;;;;;4.53;1.70;;;;;;;24.08;52.06;100345.13;5098088;28;20050;-61
2022/08/27 11:42:20;;;;;;;3.85;1.70;;;;;;;24.49;51.54;100341.78;5086640;28;20044;-61
2022/08/27 11:44:54;;;;;;;6.07;1.90;;;;;;;24.84;51.02;100347.72;5083878;28;20056;-61
2022/08/27 11:47:24;;;;;;;3.70;1.90;;;;;;;25.24;49.05;100340.59;5100048;28;20047;-61